• Join FlightAware (Why Join?)
  • Login
  • US Flag 
07:24PM EST


 

Airport Tracker/Info


-or-


 

Live Flight TrackerFlight Track Log ✈ SKW5550 ✈ 18-Oct-2013 ✈ KCOD - KDEN

Flight Track Log - Related Links

Times and Time Zones

All times are in EDT time to prevent confusion due to time zone crossing. See the SKW5550 flight status page for this flight to view local times or setup timezone preferences in your user account.

Time Position Orientation Groundspeed Altitude Reporting Facility
EDT Latitude Longitude Course Direction KTS MPH feet Rate Location/Type
09:49AM 44.5444 -108.9839 171° South 192 221 6,400  Level Salt Lake Center
09:50AM 44.5258 -108.9178 112° Southeast 242 278 8,200 1,740 Climbing Salt Lake Center
09:51AM 43.9985 -108.4949 157° South  Level Estimated
09:51AM 44.4619 -108.8753 155° Southeast 248 285 10,000  Level Salt Lake Center
09:52AM 43.8914 -108.4819 175° South  Level FlightAware Approximate
09:52AM 44.3817 -108.8294 158° South 275 316 11,800  Level Salt Lake Center
09:53AM 43.8050 -108.3935 157° South  Level Estimated
09:53AM 44.2922 -108.7789 158° South 308 354 13,600  Level Salt Lake Center
09:54AM 43.6988 -108.3699 171° South  Level FlightAware Approximate
09:54AM 44.1961 -108.7242 158° South 339 390 15,600  Level Salt Lake Center
09:55AM 44.0964 -108.6647 157° South 369 425 17,500 1,500 Climbing Salt Lake Center
09:56AM 43.9933 -108.6061 158° South 391 450 18,700 1,440 Climbing Salt Lake Center
09:57AM 43.8672 -108.5328 157° South 406 467 20,500 1,560 Climbing Salt Lake Center
09:58AM 43.7569 -108.4700 158° South 425 489 21,900 1,260 Climbing Salt Lake Center
09:59AM 43.6453 -108.4069 158° South 433 498 23,100 1,020 Climbing Salt Lake Center
10:00AM 43.5322 -108.3439 158° South 439 505 24,000 960 Climbing Salt Lake Center
10:01AM 43.4236 -108.2628 152° Southeast 443 510 25,100 960 Climbing Salt Lake Center
10:02AM 43.3272 -108.1589 142° Southeast 441 507 26,000 840 Climbing Salt Lake Center
10:03AM 43.2278 -108.0544 143° Southeast 449 517 26,900 840 Climbing Salt Lake Center
10:04AM 43.1281 -107.9481 142° Southeast 455 524 27,800 660 Climbing Salt Lake Center
10:05AM 43.0272 -107.8428 143° Southeast 457 526 28,300 540 Climbing Salt Lake Center
10:06AM 42.9164 -107.7253 142° Southeast 465 535 29,000 600 Climbing Salt Lake Center
10:07AM 42.8003 -107.6036 142° Southeast 470 541 29,600 540 Climbing Salt Lake Center
10:08AM 42.6997 -107.4986 142° Southeast 474 545 30,100 540 Climbing Salt Lake Center
10:09AM 42.5978 -107.3944 143° Southeast 476 548 30,800 420 Climbing Salt Lake Center
10:10AM 42.4778 -107.2700 143° Southeast 482 555 31,000 60 Climbing Salt Lake Center
10:11AM 42.3725 -107.1642 143° Southeast 489 563 31,000  Level Salt Lake Center
10:12AM 42.2672 -107.0581 143° Southeast 493 567 31,000  Level Denver Center
10:13AM 42.1603 -106.9525 144° Southeast 495 570 31,000  Level Denver Center
10:14AM 42.0392 -106.8311 143° Southeast 487 560 31,000  Level Denver Center
10:15AM 41.9356 -106.7289 144° Southeast 483 556 31,000  Level Denver Center
10:16AM 41.8331 -106.6267 143° Southeast 481 554 31,000  Level Denver Center
10:17AM 41.7119 -106.5078 144° Southeast 483 556 31,000  Level Denver Center
10:18AM 41.6014 -106.3989 144° Southeast 475 547 31,000  Level Denver Center
10:19AM 41.5008 -106.3008 144° Southeast 471 542 31,000  Level Denver Center
10:20AM 41.3989 -106.2025 144° Southeast 471 542 31,000  Level Denver Center
10:21AM 41.2822 -106.0906 144° Southeast 466 536 31,000  Level Denver Center
10:22AM 41.1808 -105.9917 144° Southeast 470 541 31,000  Level Denver Center
10:24AM 41.0619 -105.8767 144° Southeast 474 545 31,000 -900 Level Denver Center
10:25AM 40.9503 -105.7706 144° Southeast 475 547 29,200 -1,860 Descending Denver Center
10:26AM 40.8456 -105.6703 144° Southeast 469 540 27,200 -1,860 Descending Denver Center
10:27AM 40.7461 -105.5753 144° Southeast 447 514 25,400 -1,620 Descending Denver Center
10:28AM 40.6503 -105.4869 145° Southeast 427 491 24,000 -1,500 Descending Denver Center
10:29AM 40.5714 -105.3767 133° Southeast 416 479 22,400 -1,500 Descending Denver Center
10:30AM 40.5094 -105.2661 126° Southeast 383 441 21,000 -1,560 Descending Denver Center
10:31AM 40.4206 -105.1786 143° Southeast 373 429 19,300 -1,620 Descending Denver Center
10:32AM 40.3344 -105.1047 147° Southeast 348 400 17,800 -1,500 Descending Denver Center
10:33AM 40.2639 -105.0233 139° Southeast 338 389 16,300 -1,440 Descending Denver Center
10:34AM 40.1928 -104.9481 141° Southeast 331 381 14,900 -1,440 Descending Denver Center
10:35AM 40.1158 -104.8650 140° Southeast 334 384 13,400 -960 Descending Denver Center
10:36AM 40.0472 -104.7906 140° Southeast 322 371 13,000 -300 Descending Denver Center
10:37AM 39.9853 -104.7239 140° Southeast 290 334 12,800 -900 Descending Denver Center
10:38AM 39.9642 -104.6289 106° East 263 303 11,200 -900 Descending Denver Center
10:39AM 39.9600 -104.5406 93° East 245 282 11,000 -480 Descending Denver Center
10:40AM 39.9550 -104.4567 94° East 234 269 10,300 -900 Descending Denver Center
10:41AM 39.9481 -104.3683 96° East 228 262 9,200 -1,140 Descending Denver Center
10:42AM 39.9244 -104.2942 113° Southeast 242 278 8,000 -600 Descending Denver Center
10:43AM 39.8811 -104.3483 224° Southwest 223 257 8,000 -120 Level Denver Center
10:44AM 39.8833 -104.4167 272° West 216 249 7,800 -600 Descending Denver TRACON
10:45AM 39.8833 -104.4833 270° West 192 221 7,000 -660 Descending Denver TRACON
10:46AM 39.8833 -104.5500 270° West 166 191 6,500 -720 Descending Denver TRACON
10:47AM 39.8833 -104.6000 270° West 147 169 5,600 -900 Descending Denver TRACON